Weather at Gila River Memorial Airport [CLOSED]

Public forecast

Using degrees Fahrenheit for public forecast. Weather courtesy of forecast.io.

Closest aviation weather report (METAR) to Gila River Memorial Airport

Closest report is Chandler Municipal Airport, 5.3 nm (9.9 km) ENE. Retrieved 2020/09/24 17:47 UTC (39 minutes ago):

KCHD 241747Z 00000KT 10SM CLR 33/06 A2992

Closest aviation forecast (TAF) to Gila River Memorial Airport

Closest forecast is Phoenix Sky Harbor International Airport, 12.5 nm (23.1 km) NNW. Retrieved 2020/09/24 18:57 UTC (0 seconds ago):

TAF KPHX 241755Z 2418/2524 15005KT P6SM SKC FM241930 27007KT P6SM SKC FM251100 10005KT P6SM SKC FM252000 28006KT P6SM SKC